Time;durP1;ratioP1;P1;durP2;ratioP2;P2;SDS_P1;SDS_P2;PMS_P1;PMS_P2;Temp;Humidity;BMP_temperature;BMP_pressure;BME280_temperature;BME280_humidity;BME280_pressure;Samples;Min_cycle;Max_cycle;Signal;HPM_P1;HPM_P2
2021/03/04 00:00:06;;;;;;;11.40;6.43;;;8.50;98.30;;;;;;4995736;28;20471;-88
2021/03/04 00:02:32;;;;;;;11.10;6.60;;;8.50;98.10;;;;;;4994352;28;20449;-89
2021/03/04 00:04:59;;;;;;;12.20;6.93;;;8.50;97.90;;;;;;4995582;28;20823;-88
2021/03/04 00:07:25;;;;;;;9.83;6.20;;;8.50;97.90;;;;;;4995482;28;20461;-87
2021/03/04 00:09:51;;;;;;;11.13;6.83;;;8.60;97.90;;;;;;4989907;28;20492;-86
2021/03/04 00:12:18;;;;;;;11.27;6.70;;;8.40;98.60;;;;;;4995058;28;20856;-88
2021/03/04 00:14:44;;;;;;;10.00;6.30;;;8.40;98.70;;;;;;4995317;28;20460;-89
2021/03/04 00:17:12;;;;;;;10.87;6.77;;;8.40;98.50;;;;;;4993919;28;20485;-87
2021/03/04 00:19:38;;;;;;;7.07;5.23;;;8.40;97.40;;;;;;4994861;28;20449;-89
2021/03/04 00:22:05;;;;;;;7.50;5.80;;;8.60;97.00;;;;;;4995194;28;20838;-88
2021/03/04 00:24:31;;;;;;;10.80;5.87;;;8.60;97.20;;;;;;4993784;28;20449;-86
2021/03/04 00:26:58;;;;;;;21.03;7.83;;;8.60;97.10;;;;;;4995059;28;20449;-87
2021/03/04 00:29:24;;;;;;;10.37;6.30;;;8.50;97.10;;;;;;4994944;28;20446;-89
2021/03/04 00:31:50;;;;;;;9.27;6.27;;;8.50;96.90;;;;;;4992446;28;20461;-85
2021/03/04 00:34:18;;;;;;;9.50;6.37;;;8.60;96.60;;;;;;4994384;28;20457;-87
2021/03/04 00:36:44;;;;;;;10.67;5.80;;;8.60;96.80;;;;;;4989832;28;20453;-88
2021/03/04 00:39:10;;;;;;;9.17;6.27;;;8.60;97.50;;;;;;4994420;28;20477;-88
2021/03/04 00:41:36;;;;;;;8.50;6.27;;;8.50;97.60;;;;;;4990774;28;20942;-88
2021/03/04 00:44:04;;;;;;;10.93;6.73;;;8.40;98.60;;;;;;4992697;28;20520;-86
2021/03/04 00:46:30;;;;;;;10.70;5.87;;;8.20;98.70;;;;;;4994591;28;20819;-86
2021/03/04 00:48:57;;;;;;;10.23;6.37;;;8.20;99.20;;;;;;4991426;28;20864;-88
2021/03/04 00:51:24;;;;;;;11.30;7.23;;;8.10;99.60;;;;;;4992632;28;20793;-89
2021/03/04 00:53:50;;;;;;;13.10;6.40;;;8.00;99.90;;;;;;4994076;28;21010;-87
2021/03/04 00:56:16;;;;;;;8.10;6.30;;;7.90;99.80;;;;;;4993970;28;20993;-87
2021/03/04 00:58:43;;;;;;;9.67;6.70;;;7.90;99.90;;;;;;4994971;28;20531;-86
2021/03/04 01:01:09;;;;;;;9.60;5.80;;;7.90;99.90;;;;;;4997139;28;20456;-88
2021/03/04 01:03:35;;;;;;;10.80;5.90;;;7.80;99.90;;;;;;4990151;28;20481;-86
2021/03/04 01:06:02;;;;;;;9.20;5.77;;;7.90;99.70;;;;;;4994122;28;20461;-87
2021/03/04 01:08:29;;;;;;;11.43;6.10;;;7.90;99.50;;;;;;4994126;28;20465;-88
2021/03/04 01:10:55;;;;;;;11.13;7.07;;;7.90;99.90;;;;;;4993914;28;20996;-87
2021/03/04 01:13:23;;;;;;;12.43;6.57;;;7.90;99.90;;;;;;4993870;28;21022;-87
2021/03/04 01:15:49;;;;;;;9.90;6.77;;;7.80;99.90;;;;;;4993985;28;20457;-87
2021/03/04 01:18:16;;;;;;;11.50;6.77;;;7.80;99.90;;;;;;4987525;28;20449;-87
2021/03/04 01:20:43;;;;;;;9.53;6.37;;;8.00;98.60;;;;;;4990704;28;20466;-86
2021/03/04 01:23:09;;;;;;;10.93;6.30;;;8.10;98.20;;;;;;4993555;28;20453;-88
2021/03/04 01:25:36;;;;;;;10.23;6.40;;;8.10;99.00;;;;;;4993783;28;20515;-87
2021/03/04 01:28:03;;;;;;;12.20;6.43;;;7.90;99.90;;;;;;4993581;28;20460;-88
2021/03/04 01:30:31;;;;;;;9.10;6.27;;;7.90;99.90;;;;;;4993569;28;20453;-86
2021/03/04 01:32:57;;;;;;;14.63;6.73;;;7.90;99.60;;;;;;4992417;28;20497;-86
2021/03/04 01:35:24;;;;;;;8.40;6.80;;;7.80;99.90;;;;;;4993230;28;20445;-88
2021/03/04 01:37:51;;;;;;;10.33;6.87;;;7.80;99.80;;;;;;4993387;28;20453;-87
2021/03/04 01:40:20;;;;;;;10.73;6.47;;;7.80;98.80;;;;;;4993441;28;21011;-86
2021/03/04 01:42:48;;;;;;;13.70;6.93;;;7.90;98.40;;;;;;4993053;28;20465;-89
2021/03/04 01:45:15;;;;;;;7.83;6.07;;;8.00;98.20;;;;;;4993419;28;20449;-88
2021/03/04 01:47:45;;;;;;;11.80;6.30;;;7.90;98.60;;;;;;4992256;28;20867;-87
2021/03/04 01:50:12;;;;;;;9.80;6.80;;;7.90;99.00;;;;;;4990051;28;20453;-87
2021/03/04 01:52:39;;;;;;;12.53;7.43;;;7.80;99.40;;;;;;4989042;28;20485;-87
2021/03/04 01:55:07;;;;;;;15.33;6.73;;;7.80;99.00;;;;;;4993290;28;20457;-87
2021/03/04 01:57:33;;;;;;;12.13;6.93;;;7.80;98.80;;;;;;4986622;28;20511;-87
2021/03/04 02:00:00;;;;;;;12.40;7.13;;;7.80;99.10;;;;;;4993905;28;20441;-87
2021/03/04 02:03:16;;;;;;;11.33;7.27;;;7.80;98.90;;;;;;4992521;28;20452;-88
2021/03/04 02:05:43;;;;;;;14.40;7.80;;;7.90;98.90;;;;;;4993722;28;20899;-86
2021/03/04 02:08:18;;;;;;;13.60;7.53;;;7.90;98.50;;;;;;4995992;28;20456;-86
2021/03/04 02:10:49;;;;;;;11.27;7.07;;;7.90;98.60;;;;;;5010235;28;20475;-86
2021/03/04 02:13:23;;;;;;;10.03;7.10;;;8.00;98.30;;;;;;5001158;28;20993;-86
2021/03/04 02:15:56;;;;;;;11.37;7.07;;;8.10;97.60;;;;;;4994125;28;20798;-86
2021/03/04 02:18:26;;;;;;;16.53;8.50;;;8.20;97.40;;;;;;4989881;28;20520;-86
2021/03/04 02:21:22;;;;;;;11.47;5.97;;;8.70;96.70;;;;;;4993522;28;20476;-86
2021/03/04 02:24:06;;;;;;;8.70;6.37;;;8.70;95.50;;;;;;4991745;28;20453;-86
2021/03/04 02:26:48;;;;;;;10.63;7.27;;;8.70;95.50;;;;;;4991810;28;20449;-87
2021/03/04 02:29:19;;;;;;;9.70;5.83;;;8.80;94.70;;;;;;4998713;28;20445;-85
2021/03/04 02:31:47;;;;;;;6.43;5.17;;;8.80;94.70;;;;;;4993366;28;20453;-88
2021/03/04 02:34:15;;;;;;;14.60;6.30;;;8.90;94.40;;;;;;4992335;28;20489;-87
2021/03/04 02:36:44;;;;;;;11.00;6.00;;;8.80;94.60;;;;;;4993084;28;20460;-87
2021/03/04 02:39:11;;;;;;;8.80;5.60;;;8.70;94.70;;;;;;4993176;28;20459;-86
2021/03/04 02:41:39;;;;;;;9.13;5.80;;;8.70;94.70;;;;;;4986736;28;20461;-88
2021/03/04 02:44:09;;;;;;;10.27;5.90;;;8.70;94.80;;;;;;4993834;28;20453;-89
2021/03/04 02:46:37;;;;;;;9.80;5.73;;;8.70;94.70;;;;;;4994427;28;20453;-87
2021/03/04 02:49:05;;;;;;;8.30;5.47;;;8.70;94.40;;;;;;4996315;28;20445;-86
2021/03/04 02:51:33;;;;;;;9.00;6.50;;;8.70;94.70;;;;;;4996858;28;20457;-86
2021/03/04 02:54:01;;;;;;;8.20;5.43;;;8.80;94.40;;;;;;4997285;28;20500;-86
2021/03/04 02:56:29;;;;;;;11.10;6.10;;;8.90;94.30;;;;;;4997114;28;20484;-89
2021/03/04 02:58:58;;;;;;;8.57;5.60;;;9.00;93.70;;;;;;4996657;28;20454;-87
2021/03/04 03:01:26;;;;;;;9.73;6.40;;;9.00;93.80;;;;;;4996696;28;20816;-87
2021/03/04 03:03:54;;;;;;;9.20;5.83;;;9.00;93.90;;;;;;4995255;28;20460;-87
2021/03/04 03:06:22;;;;;;;9.47;5.43;;;8.90;93.80;;;;;;4994713;28;20575;-87
2021/03/04 03:08:49;;;;;;;8.50;5.90;;;9.00;93.90;;;;;;4996233;28;20453;-87
2021/03/04 03:11:17;;;;;;;16.07;5.93;;;8.90;94.10;;;;;;4996160;28;20441;-87
2021/03/04 03:13:44;;;;;;;8.57;5.33;;;9.10;93.80;;;;;;4995733;28;20866;-86
2021/03/04 03:16:11;;;;;;;10.37;5.93;;;9.00;93.90;;;;;;4995936;28;20511;-85
2021/03/04 03:18:38;;;;;;;6.27;5.30;;;8.90;93.90;;;;;;4989253;28;20507;-89
2021/03/04 03:21:05;;;;;;;9.50;6.33;;;8.90;94.10;;;;;;4996066;28;20465;-88
2021/03/04 03:23:31;;;;;;;12.43;6.67;;;8.90;94.30;;;;;;4995983;28;20449;-86
2021/03/04 03:25:58;;;;;;;9.53;6.50;;;8.80;94.30;;;;;;4995742;28;20899;-87
2021/03/04 03:28:24;;;;;;;7.80;6.20;;;8.80;94.50;;;;;;4995834;28;20488;-87
2021/03/04 03:30:51;;;;;;;10.27;6.90;;;8.70;94.60;;;;;;4995790;28;20445;-88
2021/03/04 03:33:18;;;;;;;12.73;6.83;;;8.70;94.90;;;;;;4992687;28;20513;-86
2021/03/04 03:35:46;;;;;;;10.03;6.73;;;8.70;95.00;;;;;;4993798;28;20453;-85
2021/03/04 03:38:14;;;;;;;9.50;6.73;;;8.70;95.10;;;;;;4993854;28;20475;-87
2021/03/04 03:40:45;;;;;;;13.40;7.30;;;8.60;95.30;;;;;;4995439;28;20449;-86
2021/03/04 03:43:14;;;;;;;11.03;7.00;;;8.60;95.40;;;;;;4995393;28;20464;-88
2021/03/04 03:45:42;;;;;;;10.57;7.60;;;8.50;95.50;;;;;;4995336;28;20453;-86
2021/03/04 03:48:10;;;;;;;7.40;6.40;;;8.50;95.90;;;;;;4994398;28;20464;-86
2021/03/04 03:50:39;;;;;;;9.47;7.47;;;8.50;95.90;;;;;;4995513;28;20585;-86
2021/03/04 03:53:06;;;;;;;12.57;6.80;;;8.40;96.00;;;;;;4995491;28;20488;-87
2021/03/04 03:55:33;;;;;;;10.77;7.77;;;8.40;95.80;;;;;;4992434;28;20489;-87
2021/03/04 03:58:01;;;;;;;11.37;7.73;;;8.40;96.10;;;;;;4994084;28;20496;-86
2021/03/04 04:00:28;;;;;;;10.23;6.53;;;8.40;96.30;;;;;;4996619;28;20430;-89
2021/03/04 04:02:56;;;;;;;11.87;7.13;;;8.30;96.10;;;;;;4988746;28;20461;-87
2021/03/04 04:05:23;;;;;;;12.57;6.80;;;8.30;96.30;;;;;;4992420;28;20464;-87
2021/03/04 04:07:52;;;;;;;11.17;6.70;;;8.20;96.60;;;;;;4995115;28;20457;-87
2021/03/04 04:10:20;;;;;;;11.73;6.10;;;8.30;96.00;;;;;;4993095;28;20453;-87
2021/03/04 04:12:48;;;;;;;11.17;6.47;;;8.30;95.90;;;;;;4994806;28;20516;-88
2021/03/04 04:15:14;;;;;;;8.47;5.53;;;8.30;95.80;;;;;;4989284;28;20456;-89
2021/03/04 04:17:41;;;;;;;8.17;6.33;;;8.30;95.80;;;;;;4943764;28;20449;-88
2021/03/04 04:20:08;;;;;;;9.00;6.77;;;8.20;96.10;;;;;;4995106;28;20469;-87
2021/03/04 04:22:35;;;;;;;12.17;7.03;;;8.20;96.20;;;;;;4994914;28;20453;-87
2021/03/04 04:25:02;;;;;;;10.07;5.13;;;8.20;96.40;;;;;;4994949;28;20455;-88
2021/03/04 04:27:29;;;;;;;9.50;5.57;;;8.10;96.40;;;;;;4994699;28;20501;-87
2021/03/04 04:29:56;;;;;;;7.90;6.00;;;8.10;96.40;;;;;;4944571;28;20453;-88
2021/03/04 04:32:22;;;;;;;12.37;6.53;;;8.20;96.10;;;;;;4990381;28;20994;-87
2021/03/04 04:34:49;;;;;;;8.83;5.97;;;8.20;96.10;;;;;;4994722;28;20807;-86
2021/03/04 04:37:15;;;;;;;8.90;6.10;;;8.10;96.20;;;;;;4994799;28;20457;-87
2021/03/04 04:39:42;;;;;;;7.50;6.43;;;8.20;96.20;;;;;;4995392;28;20453;-87
2021/03/04 04:42:08;;;;;;;8.33;5.90;;;8.10;96.00;;;;;;4994972;28;20451;-88
2021/03/04 04:44:36;;;;;;;8.30;6.23;;;8.10;96.00;;;;;;4990635;28;20441;-89
2021/03/04 04:47:02;;;;;;;11.83;6.60;;;8.10;95.90;;;;;;4988544;28;20472;-87
2021/03/04 04:49:28;;;;;;;14.50;5.90;;;8.10;96.00;;;;;;4994476;28;20936;-88
2021/03/04 04:51:55;;;;;;;7.77;5.40;;;8.10;96.10;;;;;;4994431;28;20454;-87
2021/03/04 04:54:21;;;;;;;9.67;6.10;;;8.10;96.00;;;;;;4994207;28;20500;-88
2021/03/04 04:56:48;;;;;;;13.47;6.20;;;8.10;95.70;;;;;;4994309;28;20488;-86
2021/03/04 04:59:14;;;;;;;7.87;5.50;;;8.10;95.80;;;;;;4994330;28;20520;-89
2021/03/04 05:01:41;;;;;;;10.30;6.10;;;8.00;96.20;;;;;;4994413;28;20462;-87
2021/03/04 05:04:08;;;;;;;8.00;6.17;;;7.90;96.70;;;;;;4993235;28;20480;-87
2021/03/04 05:06:34;;;;;;;8.80;6.10;;;7.80;97.10;;;;;;4994278;28;20450;-89
2021/03/04 05:09:00;;;;;;;11.77;6.60;;;7.70;97.40;;;;;;4991910;28;20460;-88
2021/03/04 05:11:27;;;;;;;7.83;5.70;;;7.50;98.20;;;;;;4994106;28;20979;-89
2021/03/04 05:13:54;;;;;;;8.17;6.00;;;7.30;99.00;;;;;;4994311;28;21002;-87
2021/03/04 05:16:20;;;;;;;9.93;6.53;;;7.20;99.70;;;;;;4991105;28;20464;-87
2021/03/04 05:18:47;;;;;;;9.03;5.43;;;7.10;99.70;;;;;;4992615;28;21019;-87
2021/03/04 05:21:13;;;;;;;7.70;5.53;;;7.00;99.90;;;;;;4990840;28;20460;-87
2021/03/04 05:23:40;;;;;;;10.60;5.87;;;7.00;99.90;;;;;;4994014;28;20477;-87
2021/03/04 05:26:06;;;;;;;7.57;6.47;;;6.90;99.90;;;;;;4991151;28;20469;-88
2021/03/04 05:28:32;;;;;;;8.00;6.20;;;6.80;99.90;;;;;;5002970;28;20464;-86
2021/03/04 05:30:58;;;;;;;10.87;6.40;;;6.80;99.90;;;;;;4997778;28;20465;-87
2021/03/04 05:33:25;;;;;;;8.77;5.70;;;6.80;99.90;;;;;;5006531;28;20489;-88
2021/03/04 05:35:52;;;;;;;8.93;5.73;;;6.70;99.90;;;;;;5001273;28;20453;-87
2021/03/04 05:38:19;;;;;;;10.13;6.00;;;6.60;99.90;;;;;;4991637;28;20449;-88
2021/03/04 05:40:45;;;;;;;10.97;6.30;;;6.60;99.90;;;;;;4986026;28;20445;-87
2021/03/04 05:43:11;;;;;;;8.67;6.13;;;6.50;99.90;;;;;;4990858;28;20464;-88
2021/03/04 05:45:40;;;;;;;10.07;6.00;;;6.50;99.90;;;;;;4993602;28;20452;-86
2021/03/04 05:48:08;;;;;;;8.50;6.30;;;6.40;99.90;;;;;;4989432;28;20453;-88
2021/03/04 05:50:42;;;;;;;9.60;6.83;;;6.40;99.90;;;;;;4991762;28;20458;-87
2021/03/04 05:53:13;;;;;;;11.83;5.97;;;6.40;99.90;;;;;;4993380;28;20489;-88
2021/03/04 05:55:39;;;;;;;8.73;6.07;;;6.30;99.90;;;;;;4993377;28;20492;-85
2021/03/04 05:58:06;;;;;;;7.70;5.90;;;6.20;99.90;;;;;;4993516;28;20537;-88
2021/03/04 06:00:33;;;;;;;11.17;7.30;;;6.10;99.90;;;;;;4993166;28;20449;-87
2021/03/04 06:02:59;;;;;;;10.50;6.33;;;6.10;99.90;;;;;;4987561;28;20460;-89
2021/03/04 06:05:26;;;;;;;14.07;6.83;;;6.00;99.90;;;;;;4993764;28;20449;-87
2021/03/04 06:07:52;;;;;;;8.77;6.20;;;6.00;99.90;;;;;;4993553;28;20449;-88
2021/03/04 06:10:20;;;;;;;9.23;6.00;;;5.90;99.90;;;;;;4993372;28;20453;-87
2021/03/04 06:12:46;;;;;;;10.67;6.67;;;5.80;99.90;;;;;;4993071;28;20484;-86
2021/03/04 06:15:13;;;;;;;11.27;6.37;;;5.80;99.90;;;;;;4993163;28;20898;-87
2021/03/04 06:17:39;;;;;;;8.70;6.00;;;5.80;99.90;;;;;;4991908;28;20477;-88
2021/03/04 06:20:07;;;;;;;7.23;6.37;;;5.80;99.90;;;;;;4993044;28;20767;-87
2021/03/04 06:22:35;;;;;;;10.20;6.10;;;5.80;99.90;;;;;;4995621;28;20472;-88
2021/03/04 06:25:06;;;;;;;12.03;6.67;;;5.80;99.90;;;;;;4997499;28;20507;-88
2021/03/04 06:27:35;;;;;;;13.83;8.33;;;5.90;99.90;;;;;;4997343;28;20449;-87
2021/03/04 06:30:05;;;;;;;10.93;6.90;;;6.30;99.90;;;;;;4997610;28;20472;-88
2021/03/04 06:32:31;;;;;;;9.43;6.23;;;6.30;99.90;;;;;;4995889;28;20453;-87
2021/03/04 06:35:05;;;;;;;13.80;6.50;;;6.70;99.90;;;;;;4995066;28;20463;-88
2021/03/04 06:37:32;;;;;;;13.03;6.93;;;7.00;99.90;;;;;;4998380;28;20440;-87
2021/03/04 06:39:59;;;;;;;12.77;6.50;;;7.20;99.90;;;;;;4993673;28;20453;-88
2021/03/04 06:42:26;;;;;;;11.27;7.17;;;7.30;99.80;;;;;;4996307;28;20959;-87
2021/03/04 06:44:55;;;;;;;13.63;7.40;;;7.50;99.40;;;;;;4998059;28;20445;-90
2021/03/04 06:47:22;;;;;;;10.80;7.43;;;7.60;99.70;;;;;;4994624;28;20453;-88
2021/03/04 06:49:49;;;;;;;12.53;7.80;;;7.60;99.30;;;;;;4997395;28;20542;-89
2021/03/04 06:52:27;;;;;;;10.80;7.50;;;7.60;99.30;;;;;;4997528;28;20794;-88
2021/03/04 06:54:55;;;;;;;14.50;7.57;;;7.70;99.30;;;;;;4994068;28;20531;-88
2021/03/04 06:57:22;;;;;;;9.87;6.90;;;7.70;99.20;;;;;;4982986;28;20477;-87
2021/03/04 06:59:49;;;;;;;9.20;7.10;;;7.80;98.70;;;;;;4980496;28;20518;-87
2021/03/04 07:02:28;;;;;;;9.50;7.17;;;7.90;99.00;;;;;;4976684;28;20509;-86
2021/03/04 07:04:56;;;;;;;11.23;7.53;;;8.00;98.80;;;;;;4977469;28;20458;-86
2021/03/04 07:07:24;;;;;;;11.63;6.73;;;8.10;98.50;;;;;;4975775;28;20450;-87
2021/03/04 07:09:53;;;;;;;12.73;7.30;;;8.20;97.70;;;;;;4959053;29;20938;-87
2021/03/04 07:12:21;;;;;;;15.60;6.83;;;8.40;97.80;;;;;;4972673;28;20474;-87
2021/03/04 07:14:48;;;;;;;11.80;7.13;;;8.50;97.50;;;;;;4978999;28;20561;-88
2021/03/04 07:17:16;;;;;;;10.20;6.00;;;8.60;97.20;;;;;;4978195;28;20454;-88
2021/03/04 07:19:49;;;;;;;9.17;7.10;;;8.80;96.80;;;;;;4976876;28;20446;-89
2021/03/04 07:22:16;;;;;;;13.50;7.80;;;9.00;96.40;;;;;;4978316;28;20454;-89
2021/03/04 07:24:44;;;;;;;11.87;8.40;;;9.50;96.10;;;;;;4979667;28;20458;-90
2021/03/04 07:27:12;;;;;;;15.50;6.43;;;9.30;95.60;;;;;;4978933;28;20453;-87
2021/03/04 07:29:39;;;;;;;11.17;6.60;;;9.40;95.70;;;;;;4978880;28;20453;-87
2021/03/04 07:32:07;;;;;;;9.37;5.80;;;9.50;95.10;;;;;;4978419;28;20462;-88
2021/03/04 07:34:35;;;;;;;10.17;6.77;;;9.50;94.50;;;;;;4979302;28;20498;-87
2021/03/04 07:37:03;;;;;;;8.40;5.80;;;9.70;94.40;;;;;;4979492;28;20450;-89
2021/03/04 07:39:30;;;;;;;3.73;2.80;;;9.80;93.90;;;;;;4980936;28;20446;-86
2021/03/04 07:41:57;;;;;;;11.50;6.07;;;10.00;93.00;;;;;;4985410;28;20446;-87
2021/03/04 07:44:25;;;;;;;6.17;3.97;;;10.10;93.00;;;;;;4980469;28;20522;-88
2021/03/04 07:46:53;;;;;;;7.00;5.17;;;10.10;92.40;;;;;;4979253;28;20449;-86
2021/03/04 07:49:29;;;;;;;4.17;3.20;;;10.10;92.50;;;;;;4979276;28;20450;-90
2021/03/04 07:52:06;;;;;;;10.53;6.30;;;10.20;92.00;;;;;;4981480;28;20442;-88
2021/03/04 07:54:34;;;;;;;13.83;5.90;;;10.50;92.10;;;;;;4976202;28;20568;-88
2021/03/04 07:57:06;;;;;;;10.60;6.90;;;10.90;91.40;;;;;;4995405;28;20484;-91
2021/03/04 07:59:33;;;;;;;8.40;5.10;;;10.90;91.20;;;;;;4996422;28;20456;-92
2021/03/04 08:02:01;;;;;;;10.70;7.03;;;11.00;90.60;;;;;;4997782;28;20445;-90
2021/03/04 08:04:30;;;;;;;7.83;5.77;;;10.90;90.50;;;;;;4995856;28;20541;-92
2021/03/04 08:06:57;;;;;;;11.10;7.50;;;11.10;90.60;;;;;;4996640;28;20456;-93
2021/03/04 08:09:25;;;;;;;14.33;4.20;;;11.20;90.20;;;;;;4996119;28;20430;-93
2021/03/04 08:12:02;;;;;;;12.13;7.47;;;11.10;89.90;;;;;;4994274;28;20477;-91
2021/03/04 08:14:29;;;;;;;11.60;6.87;;;11.10;90.30;;;;;;4990095;28;20493;-91
2021/03/04 08:16:55;;;;;;;10.10;6.93;;;11.20;90.60;;;;;;4995636;28;20457;-88
2021/03/04 08:19:27;;;;;;;11.70;7.00;;;11.10;90.60;;;;;;4995424;28;20469;-88
2021/03/04 08:21:57;;;;;;;10.50;6.40;;;11.00;90.20;;;;;;4995191;28;20812;-91
2021/03/04 08:24:25;;;;;;;9.20;6.37;;;11.40;89.70;;;;;;4995337;28;20528;-90
2021/03/04 08:26:56;;;;;;;13.07;7.50;;;11.10;89.80;;;;;;4993394;28;20453;-88
2021/03/04 08:29:23;;;;;;;8.57;6.07;;;11.00;90.20;;;;;;4995175;28;20441;-89
2021/03/04 08:31:49;;;;;;;9.10;5.90;;;11.40;89.70;;;;;;4995386;28;20449;-91
2021/03/04 08:34:16;;;;;;;12.40;5.67;;;11.60;88.00;;;;;;4990074;28;20501;-88
2021/03/04 08:36:43;;;;;;;14.90;7.07;;;12.00;87.70;;;;;;4983634;28;20461;-87
2021/03/04 08:39:09;;;;;;;10.10;7.07;;;12.40;87.40;;;;;;4994901;28;20446;-90
2021/03/04 08:41:36;;;;;;;17.23;7.43;;;12.00;85.50;;;;;;4982771;28;20460;-87
2021/03/04 08:44:11;;;;;;;13.20;6.83;;;12.10;86.20;;;;;;4975603;28;20438;-86
2021/03/04 08:46:39;;;;;;;9.37;7.20;;;12.50;86.60;;;;;;4977458;28;20454;-91
2021/03/04 08:49:06;;;;;;;11.73;6.67;;;12.60;85.40;;;;;;4972815;28;20457;-89
2021/03/04 08:51:34;;;;;;;12.27;7.30;;;12.50;84.90;;;;;;4978036;28;20467;-87
2021/03/04 08:54:01;;;;;;;10.20;5.17;;;12.90;85.00;;;;;;4986018;28;20494;-87
2021/03/04 08:56:27;;;;;;;10.50;7.47;;;12.30;84.60;;;;;;4987186;28;20544;-86
2021/03/04 08:58:54;;;;;;;11.77;7.30;;;12.00;86.40;;;;;;4980828;28;20461;-88
2021/03/04 09:01:21;;;;;;;13.73;7.33;;;11.60;87.60;;;;;;4985011;28;20461;-86
2021/03/04 09:03:47;;;;;;;10.60;7.27;;;11.50;87.60;;;;;;4993533;28;20433;-86
2021/03/04 09:06:15;;;;;;;19.63;7.50;;;11.80;88.80;;;;;;4979217;28;20454;-89
2021/03/04 09:08:43;;;;;;;10.40;6.50;;;12.20;88.20;;;;;;4972135;28;20442;-86
2021/03/04 09:11:22;;;;;;;14.47;7.40;;;12.30;87.30;;;;;;4980592;28;21056;-86
2021/03/04 09:13:49;;;;;;;14.37;6.60;;;12.20;87.00;;;;;;4969340;28;20494;-86
2021/03/04 09:16:16;;;;;;;12.93;7.27;;;12.60;86.30;;;;;;4975251;28;20868;-88
2021/03/04 09:18:44;;;;;;;15.17;6.90;;;12.70;84.60;;;;;;4968439;28;20446;-86
2021/03/04 09:21:12;;;;;;;8.83;6.13;;;12.60;85.00;;;;;;4974621;28;20449;-86
2021/03/04 09:23:38;;;;;;;12.27;7.90;;;12.80;86.30;;;;;;4974965;28;20808;-88
2021/03/04 09:26:06;;;;;;;13.27;7.37;;;13.20;85.50;;;;;;4975169;28;20454;-88
2021/03/04 09:28:32;;;;;;;13.77;7.10;;;13.00;84.60;;;;;;4974912;28;20461;-88
2021/03/04 09:31:09;;;;;;;10.90;7.70;;;12.80;85.00;;;;;;4974705;28;20460;-88
2021/03/04 09:33:36;;;;;;;12.90;6.90;;;12.10;86.70;;;;;;4977413;28;20496;-86
2021/03/04 09:36:05;;;;;;;14.00;7.13;;;11.80;88.40;;;;;;4992186;28;20449;-91
2021/03/04 09:38:33;;;;;;;30.77;8.73;;;11.70;89.60;;;;;;4988692;28;20580;-87
2021/03/04 09:41:09;;;;;;;14.17;7.27;;;12.30;89.50;;;;;;4968981;28;20447;-85
2021/03/04 09:43:39;;;;;;;11.90;7.17;;;13.10;86.30;;;;;;4974387;28;20472;-88
2021/03/04 09:46:06;;;;;;;11.13;5.23;;;13.30;85.70;;;;;;4974263;28;20461;-85
2021/03/04 09:48:33;;;;;;;10.50;7.03;;;13.60;84.30;;;;;;4973073;28;20479;-84
2021/03/04 09:50:59;;;;;;;8.30;4.17;;;13.70;83.40;;;;;;4947861;28;20855;-83
2021/03/04 09:53:27;;;;;;;12.33;6.90;;;13.90;83.10;;;;;;4993113;28;20496;-86
2021/03/04 09:55:54;;;;;;;10.93;6.07;;;14.30;82.70;;;;;;4989013;28;20492;-87
2021/03/04 09:58:22;;;;;;;11.70;7.30;;;14.80;81.00;;;;;;4992392;28;21008;-85
2021/03/04 10:00:56;;;;;;;8.47;5.10;;;14.40;81.40;;;;;;4989337;28;20979;-89
2021/03/04 10:03:31;;;;;;;12.70;7.70;;;14.40;82.20;;;;;;4992193;28;20924;-88
2021/03/04 10:05:58;;;;;;;10.13;5.50;;;14.70;82.00;;;;;;4994757;28;20503;-86
2021/03/04 10:08:36;;;;;;;5.83;4.57;;;14.70;80.30;;;;;;4992887;28;20946;-85
2021/03/04 10:11:03;;;;;;;12.87;6.00;;;14.80;80.20;;;;;;4993154;28;20844;-86
2021/03/04 10:13:30;;;;;;;14.50;6.97;;;14.90;80.80;;;;;;4990989;28;20877;-87
2021/03/04 10:16:08;;;;;;;9.60;6.60;;;14.80;79.90;;;;;;4984127;28;20850;-89
2021/03/04 10:18:34;;;;;;;14.90;7.10;;;14.60;81.60;;;;;;4972894;28;20485;-88
2021/03/04 10:21:01;;;;;;;15.40;7.00;;;15.30;81.30;;;;;;4973827;28;20442;-88
2021/03/04 10:23:28;;;;;;;14.80;7.97;;;16.00;77.70;;;;;;4973758;28;20446;-87
2021/03/04 10:25:55;;;;;;;10.07;6.90;;;15.90;78.00;;;;;;4974171;28;20813;-88
2021/03/04 10:28:21;;;;;;;15.33;7.40;;;16.30;78.20;;;;;;4974330;28;20457;-88
2021/03/04 10:30:47;;;;;;;15.50;6.90;;;15.70;77.00;;;;;;4969548;28;20450;-89
2021/03/04 10:33:14;;;;;;;12.37;6.90;;;16.00;77.20;;;;;;4974450;28;20485;-88
2021/03/04 10:35:40;;;;;;;12.20;8.00;;;16.40;77.60;;;;;;4974625;28;20477;-87
2021/03/04 10:38:07;;;;;;;14.53;8.20;;;17.10;78.40;;;;;;4966431;28;20465;-88
2021/03/04 10:40:34;;;;;;;12.10;6.87;;;17.40;75.40;;;;;;4971549;28;20450;-89
2021/03/04 10:43:01;;;;;;;12.17;7.03;;;17.40;73.30;;;;;;4974470;28;20446;-89
2021/03/04 10:45:28;;;;;;;77.67;13.93;;;17.30;74.10;;;;;;4968571;28;20446;-87
2021/03/04 10:47:54;;;;;;;17.77;8.20;;;17.00;73.70;;;;;;4972437;28;20450;-86
2021/03/04 10:50:23;;;;;;;13.10;7.17;;;18.20;73.50;;;;;;4978091;28;20453;-86
2021/03/04 10:52:49;;;;;;;12.57;7.50;;;18.50;71.80;;;;;;4991546;28;20446;-87
2021/03/04 10:55:16;;;;;;;15.17;7.57;;;18.30;71.50;;;;;;4992208;28;20453;-88
2021/03/04 10:57:44;;;;;;;12.40;7.80;;;18.00;72.10;;;;;;4985877;28;20984;-88
2021/03/04 11:00:13;;;;;;;16.60;8.67;;;17.60;72.90;;;;;;4973465;28;20521;-89
2021/03/04 11:02:39;;;;;;;12.50;6.97;;;17.20;72.00;;;;;;4976547;28;20438;-88
2021/03/04 11:05:07;;;;;;;17.37;8.00;;;17.20;75.80;;;;;;4977630;28;20496;-87
2021/03/04 11:07:34;;;;;;;13.37;8.53;;;17.00;74.00;;;;;;4993584;28;20483;-87
2021/03/04 11:10:00;;;;;;;13.77;9.30;;;17.00;74.40;;;;;;4987756;28;20442;-87
2021/03/04 11:12:27;;;;;;;11.60;7.10;;;17.20;73.90;;;;;;4978912;28;20454;-87
2021/03/04 11:14:54;;;;;;;12.23;8.37;;;18.20;72.90;;;;;;4984095;28;20489;-90
2021/03/04 11:17:20;;;;;;;12.23;7.97;;;17.80;72.30;;;;;;4979708;28;20450;-89
2021/03/04 11:19:46;;;;;;;17.23;9.53;;;17.70;73.40;;;;;;4979684;28;20454;-89
2021/03/04 11:22:12;;;;;;;12.80;7.63;;;17.50;73.80;;;;;;4992479;28;20446;-88
2021/03/04 11:24:41;;;;;;;15.60;8.43;;;17.90;73.40;;;;;;4950917;28;20985;-86
2021/03/04 11:27:07;;;;;;;11.70;7.50;;;16.80;73.20;;;;;;4976811;28;20454;-86
2021/03/04 11:29:34;;;;;;;13.80;9.23;;;16.40;74.20;;;;;;4994794;28;20945;-86
2021/03/04 11:32:01;;;;;;;10.90;7.93;;;16.00;75.70;;;;;;4994883;28;20453;-85
2021/03/04 11:34:28;;;;;;;16.33;8.43;;;15.70;77.00;;;;;;4996777;28;20501;-86
2021/03/04 11:36:54;;;;;;;14.30;7.60;;;15.80;76.50;;;;;;4997001;28;20449;-88
2021/03/04 11:39:20;;;;;;;11.23;8.07;;;16.30;77.70;;;;;;4993522;28;20508;-88
2021/03/04 11:41:46;;;;;;;15.40;8.13;;;16.20;76.20;;;;;;4994337;28;20488;-87
2021/03/04 11:44:13;;;;;;;11.97;7.93;;;16.30;75.40;;;;;;4996235;28;20453;-87
2021/03/04 11:46:40;;;;;;;12.70;7.70;;;16.30;75.30;;;;;;4993776;28;20529;-86
2021/03/04 11:49:07;;;;;;;12.10;7.60;;;16.70;75.70;;;;;;4994065;28;20461;-87
2021/03/04 11:51:34;;;;;;;17.00;8.77;;;16.60;75.20;;;;;;4995598;28;20457;-87
2021/03/04 11:54:00;;;;;;;11.00;7.03;;;16.90;74.30;;;;;;4995456;28;20491;-88
2021/03/04 11:56:27;;;;;;;12.70;6.90;;;16.30;73.90;;;;;;4995395;28;20489;-89
2021/03/04 11:58:53;;;;;;;16.00;8.67;;;15.50;76.80;;;;;;4995441;28;20971;-87
2021/03/04 12:01:19;;;;;;;8.93;4.47;;;15.10;78.50;;;;;;4995419;28;20449;-85
2021/03/04 12:03:46;;;;;;;10.90;7.50;;;15.10;77.30;;;;;;4993991;28;20458;-87
2021/03/04 12:06:13;;;;;;;18.43;7.80;;;15.50;78.10;;;;;;4995327;28;20869;-89
2021/03/04 12:08:40;;;;;;;18.67;8.70;;;15.80;77.70;;;;;;4995106;28;20472;-86
2021/03/04 12:11:06;;;;;;;11.47;7.60;;;15.60;78.20;;;;;;4995668;28;20945;-91
2021/03/04 12:13:34;;;;;;;15.47;7.57;;;15.60;77.40;;;;;;4995248;28;20885;-87
2021/03/04 12:16:03;;;;;;;17.70;9.17;;;15.80;77.40;;;;;;4994808;28;20457;-87
2021/03/04 12:18:30;;;;;;;24.60;8.30;;;15.70;78.60;;;;;;4994052;28;21120;-85
2021/03/04 12:20:56;;;;;;;17.13;7.83;;;15.90;77.20;;;;;;4995502;28;20453;-87
2021/03/04 12:23:23;;;;;;;27.63;10.63;;;15.80;77.50;;;;;;4994985;28;20480;-86
2021/03/04 12:25:50;;;;;;;15.43;8.33;;;16.00;78.70;;;;;;4994822;28;20873;-86
2021/03/04 12:28:16;;;;;;;12.50;8.57;;;16.30;76.40;;;;;;4995676;28;20449;-88
2021/03/04 12:30:42;;;;;;;11.90;8.30;;;16.70;76.30;;;;;;4995795;28;20441;-88
2021/03/04 12:33:08;;;;;;;12.63;7.43;;;16.20;75.00;;;;;;4994249;28;20449;-88
2021/03/04 12:35:35;;;;;;;12.50;8.63;;;15.90;76.70;;;;;;4995565;28;20446;-88
2021/03/04 12:38:01;;;;;;;13.30;8.50;;;15.80;76.80;;;;;;4916460;29;20445;-87
2021/03/04 12:40:30;;;;;;;15.30;7.50;;;15.30;77.80;;;;;;4915773;29;20456;-86
2021/03/04 12:42:57;;;;;;;13.73;7.63;;;15.00;78.40;;;;;;4915402;29;20452;-85
2021/03/04 12:45:23;;;;;;;10.30;7.27;;;15.10;78.90;;;;;;4915838;29;20469;-88
2021/03/04 12:47:50;;;;;;;23.00;8.80;;;15.70;78.60;;;;;;4914442;29;20585;-87